Riccall, United Kingdom
Current Conditions -  °F | °C
As of 2:50 PM on Friday 24 Oct 2014 (Local Time) from EGXU Reporting Station
Broken Clouds Broken Clouds  
Wind Chill: 57°   Ceiling: 4000
Heat Index: 57°   Visibility: 6mi
Dew Point: 45°   Wind: 13mph
Humidity: 63%   Direction: 230°SW
Pressure: 29.83"   Gusts: NA
Location:  53.83°N, 1.06°W
Report Text: EGXU 241350Z 23011KT 9999 FEW028 BKN040 14/07 Q1010 BLU NOSIG
Loading
Personal Weather Stations






























Interactive Weather Map
Tropical Storm Tracking
New forecast layout! Learn more

10-Day Weather Forecast

Advertisements
Track Severe Weather on mobile